createdAt,value
2023-04-18T00:00:52.220Z,8.4
2023-04-18T00:01:52.197Z,8.4
2023-04-18T00:02:52.191Z,8.4
2023-04-18T00:03:52.431Z,8.4
2023-04-18T00:04:52.137Z,8.4
2023-04-18T00:05:52.253Z,8.4
2023-04-18T00:06:52.102Z,8.4
2023-04-18T00:07:52.110Z,8.4
2023-04-18T00:08:52.089Z,8.4
2023-04-18T00:09:52.068Z,8.4
2023-04-18T00:10:52.072Z,8.4
2023-04-18T00:11:52.078Z,8.4
2023-04-18T00:12:52.067Z,8.4
2023-04-18T00:13:52.095Z,8.4
2023-04-18T00:14:52.052Z,8.4
2023-04-18T00:15:52.076Z,8.4
2023-04-18T00:16:52.182Z,8.4
2023-04-18T00:17:52.087Z,8.3
2023-04-18T00:18:52.056Z,8.4
2023-04-18T00:19:52.045Z,8.3
2023-04-18T00:20:52.059Z,8.4
2023-04-18T00:21:52.012Z,8.3
2023-04-18T00:22:52.022Z,8.4
2023-04-18T00:23:52.077Z,8.4
2023-04-18T00:24:52.111Z,8.4
2023-04-18T00:25:52.006Z,8.3
2023-04-18T00:26:52.048Z,8.3
2023-04-18T00:27:52.192Z,8.3
2023-04-18T00:28:52.022Z,8.4
2023-04-18T00:29:52.086Z,8.3
2023-04-18T00:30:52.102Z,8.3
2023-04-18T00:31:52.023Z,8.3
2023-04-18T00:32:52.450Z,8.3
2023-04-18T00:33:52.012Z,8.3
2023-04-18T00:34:52.116Z,8.3
2023-04-18T00:35:52.015Z,8.3
2023-04-18T00:36:52.039Z,8.3
2023-04-18T00:37:52.037Z,8.3
2023-04-18T00:38:52.198Z,8.3
2023-04-18T00:39:52.130Z,8.3
2023-04-18T00:40:52.046Z,8.3
2023-04-18T00:41:52.090Z,8.3
2023-04-18T00:42:52.044Z,8.3
2023-04-18T00:43:52.025Z,8.3
2023-04-18T00:44:52.339Z,8.3
2023-04-18T00:45:52.079Z,8.3
2023-04-18T00:46:52.026Z,8.3
2023-04-18T00:47:52.117Z,8.3
2023-04-18T00:48:52.014Z,8.3
2023-04-18T00:49:51.988Z,8.3
2023-04-18T00:50:51.971Z,8.3
2023-04-18T00:51:52.010Z,8.3
2023-04-18T00:52:52.103Z,8.3
2023-04-18T00:53:51.959Z,8.3
2023-04-18T00:54:51.982Z,8.3
2023-04-18T00:55:52.284Z,8.3
2023-04-18T00:56:51.987Z,8.3
2023-04-18T00:57:52.053Z,8.3
2023-04-18T00:58:52.098Z,8.3
2023-04-18T00:59:51.978Z,8.3
2023-04-18T01:00:52.089Z,8.3
2023-04-18T01:01:52.209Z,8.3
2023-04-18T01:02:52.057Z,8.3
2023-04-18T01:03:53.296Z,8.3
2023-04-18T01:04:51.985Z,8.3
2023-04-18T01:05:52.046Z,8.3
2023-04-18T01:06:51.998Z,8.3
2023-04-18T01:07:52.054Z,8.3
2023-04-18T01:08:52.062Z,8.3
2023-04-18T01:09:52.034Z,8.3
2023-04-18T01:10:52.058Z,8.3
2023-04-18T01:11:51.943Z,8.3
2023-04-18T01:12:51.966Z,8.3
2023-04-18T01:13:51.935Z,8.3
2023-04-18T01:14:51.961Z,8.3
2023-04-18T01:15:53.098Z,8.3
2023-04-18T01:16:51.958Z,8.3
2023-04-18T01:17:51.959Z,8.3
2023-04-18T01:18:51.937Z,8.3
2023-04-18T01:19:51.960Z,8.3
2023-04-18T01:20:52.030Z,8.3
2023-04-18T01:21:51.942Z,8.3
2023-04-18T01:22:52.060Z,8.3
2023-04-18T01:23:51.921Z,8.3
2023-04-18T01:24:51.961Z,8.3
2023-04-18T01:25:51.937Z,8.3
2023-04-18T01:26:51.910Z,8.3
2023-04-18T01:27:51.952Z,8.3
2023-04-18T01:28:51.938Z,8.3
2023-04-18T01:29:51.928Z,8.4
2023-04-18T01:30:51.972Z,8.3
2023-04-18T01:31:51.943Z,8.3
2023-04-18T01:32:51.989Z,8.3
2023-04-18T01:33:52.086Z,8.3
2023-04-18T01:34:51.959Z,8.4
2023-04-18T01:35:51.969Z,8.3
2023-04-18T01:36:51.935Z,8.4
2023-04-18T01:37:51.894Z,8.4
2023-04-18T01:38:51.893Z,8.4
2023-04-18T01:39:51.958Z,8.4
2023-04-18T01:40:51.921Z,8.4
2023-04-18T01:41:51.919Z,8.4
2023-04-18T01:42:51.965Z,8.4
2023-04-18T01:43:51.893Z,8.4
2023-04-18T01:44:52.084Z,8.4
2023-04-18T01:45:51.876Z,8.4
2023-04-18T01:46:51.989Z,8.4
2023-04-18T01:47:52.046Z,8.4
2023-04-18T01:48:52.071Z,8.4
2023-04-18T01:49:51.879Z,8.4
2023-04-18T01:50:51.909Z,8.4
2023-04-18T01:51:51.883Z,8.4
2023-04-18T01:52:51.919Z,8.4
2023-04-18T01:53:51.924Z,8.4
2023-04-18T01:54:51.908Z,8.4
2023-04-18T01:55:51.994Z,8.4
2023-04-18T01:56:51.888Z,8.4
2023-04-18T01:57:51.875Z,8.4
2023-04-18T01:58:51.900Z,8.4
2023-04-18T01:59:51.928Z,8.4
2023-04-18T02:00:51.952Z,8.4
2023-04-18T02:01:52.005Z,8.4
2023-04-18T02:02:51.965Z,8.4
2023-04-18T02:03:52.067Z,8.4
2023-04-18T02:04:51.968Z,8.4
2023-04-18T02:05:51.882Z,8.4
2023-04-18T02:06:52.081Z,8.4
2023-04-18T02:07:51.841Z,8.4
2023-04-18T02:08:51.909Z,8.4
2023-04-18T02:09:51.866Z,8.4
2023-04-18T02:10:51.893Z,8.4
2023-04-18T02:11:51.886Z,8.4
2023-04-18T02:12:51.862Z,8.4
2023-04-18T02:13:51.862Z,8.4
2023-04-18T02:14:51.861Z,8.4
2023-04-18T02:15:51.843Z,8.4
2023-04-18T02:16:51.996Z,8.4
2023-04-18T02:17:52.128Z,8.4
2023-04-18T02:18:51.865Z,8.4
2023-04-18T02:19:52.022Z,8.4
2023-04-18T02:20:51.871Z,8.4
2023-04-18T02:21:51.936Z,8.4
2023-04-18T02:22:51.857Z,8.4
2023-04-18T02:23:51.845Z,8.4
2023-04-18T02:24:51.875Z,8.4
2023-04-18T02:25:51.868Z,8.4
2023-04-18T02:26:51.990Z,8.4
2023-04-18T02:27:51.906Z,8.4
2023-04-18T02:28:51.981Z,8.4
2023-04-18T02:29:51.888Z,8.4
2023-04-18T02:30:51.832Z,8.4
2023-04-18T02:31:51.904Z,8.4
2023-04-18T02:32:51.953Z,8.4
2023-04-18T02:33:51.891Z,8.4
2023-04-18T02:34:51.850Z,8.4
2023-04-18T02:35:52.118Z,8.4
2023-04-18T02:36:51.834Z,8.4
2023-04-18T02:37:51.800Z,8.4
2023-04-18T02:38:51.885Z,8.4
2023-04-18T02:39:51.964Z,8.4
2023-04-18T02:40:51.863Z,8.4
2023-04-18T02:41:51.836Z,8.4
2023-04-18T02:42:51.826Z,8.4
2023-04-18T02:43:51.849Z,8.4
2023-04-18T02:44:51.811Z,8.4
2023-04-18T02:45:51.832Z,8.4
2023-04-18T02:46:51.800Z,8.4
2023-04-18T02:47:56.207Z,8.4
2023-04-18T02:48:51.815Z,8.4
2023-04-18T02:49:51.790Z,8.4
2023-04-18T02:50:51.982Z,8.4
2023-04-18T02:51:51.812Z,8.4
2023-04-18T02:52:51.767Z,8.4
2023-04-18T02:53:51.838Z,8.4
2023-04-18T02:54:51.802Z,8.4
2023-04-18T02:55:51.862Z,8.4
2023-04-18T02:56:51.795Z,8.4
2023-04-18T02:57:51.774Z,8.4
2023-04-18T02:58:51.760Z,8.4
2023-04-18T02:59:51.794Z,8.4
2023-04-18T03:00:51.807Z,8.4
2023-04-18T03:01:52.004Z,8.4
2023-04-18T03:02:51.880Z,8.4
2023-04-18T03:03:51.778Z,8.4
2023-04-18T03:04:52.063Z,8.4
2023-04-18T03:05:51.793Z,8.4
2023-04-18T03:06:52.817Z,8.4
2023-04-18T03:07:51.782Z,8.4
2023-04-18T03:08:51.766Z,8.4
2023-04-18T03:09:51.787Z,8.4
2023-04-18T03:10:51.786Z,8.4
2023-04-18T03:11:51.774Z,8.4
2023-04-18T03:12:51.947Z,8.4
2023-04-18T03:13:51.844Z,8.4
2023-04-18T03:14:51.864Z,8.4
2023-04-18T03:15:51.861Z,8.4
2023-04-18T03:16:53.823Z,8.4
2023-04-18T03:17:51.891Z,8.4
2023-04-18T03:18:51.802Z,8.4
2023-04-18T03:19:51.868Z,8.4
2023-04-18T03:20:51.780Z,8.4
2023-04-18T03:21:51.794Z,8.4
2023-04-18T03:22:51.740Z,8.4
2023-04-18T03:23:51.934Z,8.4
2023-04-18T03:24:51.772Z,8.4
2023-04-18T03:25:51.759Z,8.4
2023-04-18T03:26:51.753Z,8.4
2023-04-18T03:27:51.736Z,8.4
2023-04-18T03:28:51.763Z,8.4
2023-04-18T03:29:51.736Z,8.4
2023-04-18T03:30:51.734Z,8.5
2023-04-18T03:31:51.731Z,8.5
2023-04-18T03:32:51.758Z,8.5
2023-04-18T03:33:51.758Z,8.5
2023-04-18T03:34:52.064Z,8.5
2023-04-18T03:35:51.721Z,8.5
2023-04-18T03:36:51.717Z,8.5
2023-04-18T03:37:51.758Z,8.5
2023-04-18T03:38:51.713Z,8.5
2023-04-18T03:39:51.763Z,8.5
2023-04-18T03:40:51.755Z,8.5
2023-04-18T03:41:51.688Z,8.5
2023-04-18T03:42:51.687Z,8.5
2023-04-18T03:43:51.727Z,8.5
2023-04-18T03:44:51.727Z,8.5
2023-04-18T03:45:51.947Z,8.5
2023-04-18T03:46:51.879Z,8.5
2023-04-18T03:47:52.146Z,8.5
2023-04-18T03:48:51.820Z,8.5
2023-04-18T03:49:52.117Z,8.5
2023-04-18T03:50:51.687Z,8.5
2023-04-18T03:51:51.704Z,8.5
2023-04-18T03:52:51.766Z,8.4
2023-04-18T03:53:51.780Z,8.5
2023-04-18T03:54:51.790Z,8.5
2023-04-18T03:55:51.690Z,8.5
2023-04-18T03:56:51.682Z,8.5
2023-04-18T03:57:52.246Z,8.5
2023-04-18T03:58:51.732Z,8.5
2023-04-18T03:59:51.849Z,8.5
2023-04-18T04:00:51.749Z,8.5
2023-04-18T04:01:51.901Z,8.5
2023-04-18T04:02:51.931Z,8.5
2023-04-18T04:03:52.035Z,8.5
2023-04-18T04:04:52.034Z,8.5
2023-04-18T04:05:51.748Z,8.5
2023-04-18T04:06:51.703Z,8.5
2023-04-18T04:07:51.829Z,8.5
2023-04-18T04:08:51.986Z,8.5
2023-04-18T04:09:51.828Z,8.5
2023-04-18T04:10:51.747Z,8.5
2023-04-18T04:11:51.876Z,8.5
2023-04-18T04:12:51.887Z,8.5
2023-04-18T04:13:51.772Z,8.5
2023-04-18T04:14:53.194Z,8.5
2023-04-18T04:15:51.695Z,8.5
2023-04-18T04:16:51.731Z,8.5
2023-04-18T04:17:56.106Z,8.5
2023-04-18T04:18:51.674Z,8.5
2023-04-18T04:19:52.727Z,8.5
2023-04-18T04:20:51.712Z,8.5
2023-04-18T04:21:52.759Z,8.5
2023-04-18T04:22:57.683Z,8.5
2023-04-18T04:23:52.738Z,8.5
2023-04-18T04:24:51.653Z,8.5
2023-04-18T04:25:53.041Z,8.5
2023-04-18T04:27:52.971Z,8.5
2023-04-18T04:29:03.427Z,8.5
2023-04-18T04:29:53.098Z,8.5
2023-04-18T04:31:02.337Z,8.5
2023-04-18T04:31:51.790Z,8.5
2023-04-18T04:32:51.723Z,8.5
2023-04-18T04:33:51.753Z,8.5
2023-04-18T04:34:53.194Z,8.5
2023-04-18T04:35:51.671Z,8.5
2023-04-18T04:36:52.801Z,8.5
2023-04-18T04:37:54.365Z,8.5
2023-04-18T04:38:51.576Z,8.5
2023-04-18T04:39:53.326Z,8.5
2023-04-18T04:40:52.873Z,8.5
2023-04-18T04:41:54.552Z,8.5
2023-04-18T04:42:51.700Z,8.5
2023-04-18T04:43:52.898Z,8.5
2023-04-18T04:44:51.663Z,8.5
2023-04-18T04:45:51.791Z,8.5
2023-04-18T04:46:51.660Z,8.5
2023-04-18T04:47:52.877Z,8.5
2023-04-18T04:48:55.821Z,8.5
2023-04-18T04:50:03.044Z,8.5
2023-04-18T04:50:51.689Z,8.5
2023-04-18T04:51:51.630Z,8.5
2023-04-18T04:52:57.358Z,8.5
2023-04-18T04:53:52.742Z,8.5
2023-04-18T04:54:51.647Z,8.5
2023-04-18T04:55:52.790Z,8.5
2023-04-18T04:56:51.596Z,8.6
2023-04-18T04:57:51.679Z,8.6
2023-04-18T04:58:51.613Z,8.6
2023-04-18T04:59:52.771Z,8.6
2023-04-18T05:00:51.659Z,8.6
2023-04-18T05:01:53.744Z,8.6
2023-04-18T05:03:02.353Z,8.6
2023-04-18T05:03:51.804Z,8.6
2023-04-18T05:05:02.148Z,8.6
2023-04-18T05:05:52.728Z,8.6
2023-04-18T05:06:51.575Z,8.6
2023-04-18T05:07:52.735Z,8.7
2023-04-18T05:08:53.722Z,8.7
2023-04-18T05:09:51.567Z,8.7
2023-04-18T05:10:51.567Z,8.7
2023-04-18T05:11:52.972Z,8.7
2023-04-18T05:12:55.992Z,8.7
2023-04-18T05:13:53.034Z,8.7
2023-04-18T05:14:51.598Z,8.7
2023-04-18T05:15:51.587Z,8.7
2023-04-18T05:16:51.672Z,8.7
2023-04-18T05:17:56.028Z,8.8
2023-04-18T05:18:51.591Z,8.8
2023-04-18T05:19:52.976Z,8.8
2023-04-18T05:20:52.941Z,8.8
2023-04-18T05:21:53.018Z,8.8
2023-04-18T05:22:51.590Z,8.8
2023-04-18T05:23:51.638Z,8.8
2023-04-18T05:24:51.595Z,8.8
2023-04-18T05:26:02.053Z,8.9
2023-04-18T05:26:51.569Z,8.9
2023-04-18T05:27:51.619Z,8.9
2023-04-18T05:28:51.553Z,8.8
2023-04-18T05:29:51.559Z,8.9
2023-04-18T05:30:51.586Z,8.9
2023-04-18T05:31:51.605Z,8.9
2023-04-18T05:32:51.591Z,8.9
2023-04-18T05:33:51.518Z,8.9
2023-04-18T05:34:51.688Z,8.9
2023-04-18T05:35:51.627Z,9.0
2023-04-18T05:36:51.577Z,9.0
2023-04-18T05:37:51.543Z,9.0
2023-04-18T05:38:51.631Z,9.1
2023-04-18T05:39:51.524Z,9.1
2023-04-18T05:40:51.553Z,9.1
2023-04-18T05:41:51.549Z,9.1
2023-04-18T05:42:51.533Z,9.1
2023-04-18T05:44:04.290Z,9.1
2023-04-18T05:44:51.624Z,9.1
2023-04-18T05:45:51.673Z,9.1
2023-04-18T05:46:51.603Z,9.1
2023-04-18T05:47:51.596Z,9.2
2023-04-18T05:48:55.955Z,9.2
2023-04-18T05:49:51.497Z,9.2
2023-04-18T05:50:51.514Z,9.2
2023-04-18T05:51:51.569Z,9.2
2023-04-18T05:52:51.588Z,9.2
2023-04-18T05:53:51.491Z,9.2
2023-04-18T05:54:51.560Z,9.2
2023-04-18T05:55:51.525Z,9.2
2023-04-18T05:56:51.525Z,9.2
2023-04-18T05:57:51.504Z,9.2
2023-04-18T05:58:51.729Z,9.2
2023-04-18T05:59:52.663Z,9.2
2023-04-18T06:00:51.503Z,9.2
2023-04-18T06:01:51.524Z,9.2
2023-04-18T06:02:51.735Z,9.2
2023-04-18T06:03:51.897Z,9.2
2023-04-18T06:04:51.719Z,9.2
2023-04-18T06:05:54.269Z,9.2
2023-04-18T06:06:51.733Z,9.2
2023-04-18T06:07:51.460Z,9.2
2023-04-18T06:08:51.468Z,9.2
2023-04-18T06:09:51.477Z,9.2
2023-04-18T06:10:51.488Z,9.2
2023-04-18T06:11:51.539Z,9.2
2023-04-18T06:12:51.508Z,9.3
2023-04-18T06:13:51.543Z,9.3
2023-04-18T06:14:51.455Z,9.3
2023-04-18T06:15:51.567Z,9.3
2023-04-18T06:16:51.460Z,9.3
2023-04-18T06:17:51.740Z,9.4
2023-04-18T06:18:51.442Z,9.4
2023-04-18T06:19:51.530Z,9.4
2023-04-18T06:20:51.450Z,9.4
2023-04-18T06:21:51.502Z,9.4
2023-04-18T06:22:51.563Z,9.4
2023-04-18T06:23:52.805Z,9.4
2023-04-18T06:24:52.624Z,9.5
2023-04-18T06:25:51.423Z,9.5
2023-04-18T06:26:51.461Z,9.5
2023-04-18T06:27:51.489Z,9.5
2023-04-18T06:28:51.619Z,9.5
2023-04-18T06:29:51.474Z,9.5
2023-04-18T06:30:51.449Z,9.5
2023-04-18T06:31:51.508Z,9.4
2023-04-18T06:32:51.700Z,9.4
2023-04-18T06:33:51.489Z,9.4
2023-04-18T06:34:51.433Z,9.4
2023-04-18T06:35:51.496Z,9.4
2023-04-18T06:36:51.470Z,9.4
2023-04-18T06:37:51.422Z,9.4
2023-04-18T06:38:51.486Z,9.4
2023-04-18T06:39:51.728Z,9.4
2023-04-18T06:40:51.412Z,9.4
2023-04-18T06:41:51.455Z,9.4
2023-04-18T06:42:51.443Z,9.4
2023-04-18T06:44:02.650Z,9.5
2023-04-18T06:44:51.482Z,9.5
2023-04-18T06:45:51.497Z,9.5
2023-04-18T06:46:51.412Z,9.5
2023-04-18T06:47:51.523Z,9.5
2023-04-18T06:48:51.627Z,9.5
2023-04-18T06:49:51.458Z,9.6
2023-04-18T06:50:51.756Z,9.6
2023-04-18T06:51:51.377Z,9.7
2023-04-18T06:52:51.417Z,9.7
2023-04-18T06:53:51.398Z,9.7
2023-04-18T06:54:51.422Z,9.8
2023-04-18T06:55:51.435Z,9.8
2023-04-18T06:56:51.413Z,9.8
2023-04-18T06:57:52.466Z,9.8
2023-04-18T06:58:51.405Z,9.8
2023-04-18T06:59:51.382Z,9.8
2023-04-18T07:00:51.452Z,9.8
2023-04-18T07:01:51.534Z,9.8
2023-04-18T07:02:51.457Z,9.8
2023-04-18T07:03:51.488Z,9.8
2023-04-18T07:04:51.368Z,9.8
2023-04-18T07:05:51.487Z,9.8
2023-04-18T07:06:51.361Z,9.8
2023-04-18T07:07:51.376Z,9.8
2023-04-18T07:08:53.983Z,9.8
2023-04-18T07:09:51.389Z,9.8
2023-04-18T07:10:51.497Z,9.8
2023-04-18T07:11:51.400Z,9.9
2023-04-18T07:12:52.599Z,9.9
2023-04-18T07:13:51.353Z,9.9
2023-04-18T07:14:51.348Z,9.9
2023-04-18T07:15:51.561Z,9.9
2023-04-18T07:16:51.451Z,9.9
2023-04-18T07:17:51.422Z,9.9
2023-04-18T07:18:51.537Z,9.9
2023-04-18T07:19:51.383Z,9.9
2023-04-18T07:20:51.668Z,9.9
2023-04-18T07:21:51.373Z,10.0
2023-04-18T07:22:51.352Z,10.0
2023-04-18T07:23:51.356Z,10.0
2023-04-18T07:24:51.488Z,10.0
2023-04-18T07:25:51.440Z,10.1
2023-04-18T07:26:53.150Z,10.1
2023-04-18T07:27:51.415Z,10.1
2023-04-18T07:28:51.396Z,10.2
2023-04-18T07:29:51.411Z,10.2
2023-04-18T07:30:52.013Z,10.2
2023-04-18T07:31:51.425Z,10.2
2023-04-18T07:32:51.634Z,10.2
2023-04-18T07:33:51.473Z,10.2
2023-04-18T07:34:51.328Z,10.2
2023-04-18T07:35:51.382Z,10.2
2023-04-18T07:36:51.486Z,10.1
2023-04-18T07:37:51.417Z,10.1
2023-04-18T07:38:55.932Z,10.1
2023-04-18T07:39:51.361Z,10.1
2023-04-18T07:40:51.374Z,10.1
2023-04-18T07:41:51.478Z,10.1
2023-04-18T07:42:51.820Z,10.1
2023-04-18T07:43:51.356Z,10.1
2023-04-18T07:44:51.576Z,10.1
2023-04-18T07:45:51.457Z,10.1
2023-04-18T07:46:51.302Z,10.2
2023-04-18T07:47:51.331Z,10.2
2023-04-18T07:48:51.322Z,10.2
2023-04-18T07:49:51.563Z,10.3
2023-04-18T07:50:51.364Z,10.3
2023-04-18T07:51:51.322Z,10.3
2023-04-18T07:52:51.281Z,10.4
2023-04-18T07:53:51.335Z,10.5
2023-04-18T07:54:51.583Z,10.5
2023-04-18T07:55:51.780Z,10.6
2023-04-18T07:56:51.775Z,10.6
2023-04-18T07:57:51.580Z,10.7
2023-04-18T07:58:51.454Z,10.7
2023-04-18T07:59:51.361Z,10.7
2023-04-18T08:00:51.334Z,10.7
2023-04-18T08:01:51.426Z,10.7
2023-04-18T08:03:01.264Z,10.7
2023-04-18T08:03:51.488Z,10.7
2023-04-18T08:04:51.436Z,10.8
2023-04-18T08:05:51.549Z,10.8
2023-04-18T08:06:51.286Z,10.8
2023-04-18T08:07:51.255Z,10.9
2023-04-18T08:08:51.332Z,10.9
2023-04-18T08:09:51.293Z,10.9
2023-04-18T08:10:51.281Z,11.0
2023-04-18T08:11:51.272Z,11.0
2023-04-18T08:12:51.263Z,11.0
2023-04-18T08:14:51.366Z,11.1
2023-04-18T08:15:51.431Z,11.2
2023-04-18T08:16:51.293Z,11.3
2023-04-18T08:17:51.779Z,11.3
2023-04-18T08:18:51.250Z,11.3
2023-04-18T08:19:51.399Z,11.3
2023-04-18T08:20:51.401Z,11.3
2023-04-18T08:21:51.249Z,11.3
2023-04-18T08:23:51.469Z,11.3
2023-04-18T08:25:04.370Z,11.3
2023-04-18T08:25:52.588Z,11.3
2023-04-18T08:26:51.446Z,11.3
2023-04-18T08:27:51.302Z,11.4
2023-04-18T08:28:51.831Z,11.4
2023-04-18T08:29:51.541Z,11.4
2023-04-18T08:30:51.248Z,11.5
2023-04-18T08:31:51.400Z,11.5
2023-04-18T08:32:51.279Z,11.6
2023-04-18T08:33:51.283Z,11.6
2023-04-18T08:34:51.272Z,11.7
2023-04-18T08:35:51.277Z,11.8
2023-04-18T08:36:51.221Z,11.8
2023-04-18T08:37:51.217Z,11.9
2023-04-18T08:38:51.253Z,11.9
2023-04-18T08:39:51.244Z,12.0
2023-04-18T08:40:52.282Z,12.1
2023-04-18T08:41:51.221Z,12.1
2023-04-18T08:42:51.374Z,12.2
2023-04-18T08:43:51.266Z,12.2
2023-04-18T08:44:51.242Z,12.2
2023-04-18T08:45:51.280Z,12.3
2023-04-18T08:46:51.256Z,12.3
2023-04-18T08:47:52.887Z,12.3
2023-04-18T08:48:51.229Z,12.4
2023-04-18T08:49:52.574Z,12.4
2023-04-18T08:50:51.247Z,12.4
2023-04-18T08:51:51.268Z,12.4
2023-04-18T08:52:51.490Z,12.4
2023-04-18T08:53:51.240Z,12.4
2023-04-18T08:54:51.269Z,12.4
2023-04-18T08:55:51.222Z,12.5
2023-04-18T08:56:51.227Z,12.5
2023-04-18T08:57:51.188Z,12.5
2023-04-18T08:58:51.312Z,12.5
2023-04-18T08:59:51.326Z,12.6
2023-04-18T09:00:51.292Z,12.6
2023-04-18T09:01:51.694Z,12.6
2023-04-18T09:02:51.261Z,12.6
2023-04-18T09:03:51.349Z,12.6
2023-04-18T09:04:51.267Z,12.6
2023-04-18T09:05:51.279Z,12.6
2023-04-18T09:06:51.185Z,12.6
2023-04-18T09:07:51.181Z,12.6
2023-04-18T09:08:51.167Z,12.7
2023-04-18T09:09:51.239Z,12.8
2023-04-18T09:10:51.206Z,12.8
2023-04-18T09:11:51.202Z,12.8
2023-04-18T09:12:51.345Z,12.9
2023-04-18T09:13:51.202Z,12.9
2023-04-18T09:14:52.522Z,12.9
2023-04-18T09:15:51.288Z,13.0
2023-04-18T09:16:51.529Z,13.0
2023-04-18T09:17:51.318Z,13.0
2023-04-18T09:18:51.194Z,13.0
2023-04-18T09:19:53.873Z,13.0
2023-04-18T09:20:51.284Z,13.1
2023-04-18T09:21:51.199Z,13.1
2023-04-18T09:22:51.214Z,13.1
2023-04-18T09:23:51.417Z,13.1
2023-04-18T09:24:51.197Z,13.0
2023-04-18T09:25:51.177Z,13.0
2023-04-18T09:26:51.144Z,13.1
2023-04-18T09:27:51.197Z,13.1
2023-04-18T09:28:53.306Z,13.2
2023-04-18T09:29:51.210Z,13.2
2023-04-18T09:30:51.261Z,13.2
2023-04-18T09:31:51.156Z,13.3
2023-04-18T09:32:51.183Z,13.3
2023-04-18T09:33:51.167Z,13.2
2023-04-18T09:34:51.314Z,13.2
2023-04-18T09:35:51.183Z,13.2
2023-04-18T09:36:51.193Z,13.1
2023-04-18T09:37:51.215Z,13.1
2023-04-18T09:38:52.568Z,13.1
2023-04-18T09:39:51.247Z,13.1
2023-04-18T09:40:51.182Z,13.1
2023-04-18T09:41:51.156Z,13.2
2023-04-18T09:43:51.317Z,13.2
2023-04-18T09:44:51.186Z,13.3
2023-04-18T09:45:51.333Z,13.4
2023-04-18T09:46:51.196Z,13.5
2023-04-18T09:47:51.103Z,13.6
2023-04-18T09:48:51.875Z,13.6
2023-04-18T09:49:51.136Z,13.6
2023-04-18T09:50:51.248Z,13.6
2023-04-18T09:52:07.397Z,13.6
2023-04-18T09:52:51.136Z,13.6
2023-04-18T09:53:51.309Z,13.6
2023-04-18T09:54:51.224Z,13.6
2023-04-18T09:55:51.163Z,13.7
2023-04-18T09:56:51.255Z,13.8
2023-04-18T09:57:51.180Z,13.8
2023-04-18T09:58:51.216Z,13.9
2023-04-18T09:59:51.105Z,13.9
2023-04-18T10:00:51.534Z,13.9
2023-04-18T10:01:52.233Z,14.0
2023-04-18T10:02:51.263Z,13.9
2023-04-18T10:03:51.250Z,13.9
2023-04-18T10:04:51.286Z,13.8
2023-04-18T10:05:51.253Z,13.7
2023-04-18T10:06:51.115Z,13.7
2023-04-18T10:07:51.251Z,13.6
2023-04-18T10:08:51.179Z,13.6
2023-04-18T10:09:51.136Z,13.6
2023-04-18T10:10:51.100Z,13.5
2023-04-18T10:11:52.291Z,13.5
2023-04-18T10:12:51.097Z,13.5
2023-04-18T10:13:51.097Z,13.5
2023-04-18T10:14:51.112Z,13.5
2023-04-18T10:15:51.143Z,13.6
2023-04-18T10:16:51.132Z,13.7
2023-04-18T10:18:02.693Z,13.7
2023-04-18T10:18:51.139Z,13.8
2023-04-18T10:19:51.129Z,13.9
2023-04-18T10:20:51.107Z,14.0
2023-04-18T10:21:51.055Z,14.1
2023-04-18T10:22:51.121Z,14.1
2023-04-18T10:23:51.156Z,14.2
2023-04-18T10:24:51.155Z,14.3
2023-04-18T10:25:51.188Z,14.4
2023-04-18T10:26:51.078Z,14.4
2023-04-18T10:27:51.086Z,14.4
2023-04-18T10:28:51.141Z,14.4
2023-04-18T10:29:51.275Z,14.4
2023-04-18T10:31:14.546Z,14.4
2023-04-18T10:31:51.168Z,14.4
2023-04-18T10:32:51.184Z,14.4
2023-04-18T10:34:01.303Z,14.4
2023-04-18T10:34:51.076Z,14.5
2023-04-18T10:35:51.139Z,14.6
2023-04-18T10:36:51.172Z,14.6
2023-04-18T10:37:51.110Z,14.6
2023-04-18T10:38:51.095Z,14.6
2023-04-18T10:39:51.114Z,14.7
2023-04-18T10:40:51.049Z,14.8
2023-04-18T10:41:51.439Z,14.9
2023-04-18T10:42:51.136Z,15.0
2023-04-18T10:43:51.054Z,15.0
2023-04-18T10:44:55.697Z,15.1
2023-04-18T10:45:51.069Z,15.2
2023-04-18T10:46:52.559Z,15.3
2023-04-18T10:47:51.156Z,15.3
2023-04-18T10:48:51.039Z,15.3
2023-04-18T10:49:51.048Z,15.2
2023-04-18T10:50:52.389Z,15.2
2023-04-18T10:51:51.037Z,15.1
2023-04-18T10:52:51.059Z,15.0
2023-04-18T10:53:51.091Z,15.0
2023-04-18T10:54:51.142Z,15.1
2023-04-18T10:55:51.011Z,15.1
2023-04-18T10:56:51.120Z,15.1
2023-04-18T10:57:51.093Z,15.1
2023-04-18T10:58:51.254Z,15.2
2023-04-18T10:59:55.453Z,15.3
2023-04-18T11:00:51.091Z,15.4
2023-04-18T11:01:51.104Z,15.5
2023-04-18T11:02:51.590Z,15.6
2023-04-18T11:03:51.077Z,15.6
2023-04-18T11:04:51.046Z,15.6
2023-04-18T11:05:50.994Z,15.6
2023-04-18T11:06:51.072Z,15.6
2023-04-18T11:07:51.061Z,15.6
2023-04-18T11:08:51.356Z,15.6
2023-04-18T11:09:51.065Z,15.6
2023-04-18T11:10:51.096Z,15.6
2023-04-18T11:11:51.465Z,15.7
2023-04-18T11:12:51.230Z,15.6
2023-04-18T11:13:51.217Z,15.6
2023-04-18T11:14:51.102Z,15.7
2023-04-18T11:15:51.085Z,15.7
2023-04-18T11:16:51.135Z,15.6
2023-04-18T11:17:51.066Z,15.6
2023-04-18T11:18:51.093Z,15.4
2023-04-18T11:19:51.018Z,15.3
2023-04-18T11:20:50.991Z,15.3
2023-04-18T11:21:51.098Z,15.2
2023-04-18T11:22:51.018Z,15.3
2023-04-18T11:23:51.096Z,15.3
2023-04-18T11:24:51.189Z,15.3
2023-04-18T11:25:50.993Z,15.4
2023-04-18T11:26:51.083Z,15.4
2023-04-18T11:27:51.046Z,15.4
2023-04-18T11:28:51.281Z,15.4
2023-04-18T11:29:51.201Z,15.5
2023-04-18T11:30:50.991Z,15.5
2023-04-18T11:31:52.160Z,15.5
2023-04-18T11:32:51.012Z,15.5
2023-04-18T11:33:51.077Z,15.6
2023-04-18T11:34:51.058Z,15.6
2023-04-18T11:35:51.204Z,15.6
2023-04-18T11:36:50.980Z,15.7
2023-04-18T11:37:51.415Z,15.7
2023-04-18T11:38:51.011Z,15.8
2023-04-18T11:39:51.030Z,15.8
2023-04-18T11:40:51.237Z,15.8
2023-04-18T11:41:50.984Z,15.8
2023-04-18T11:42:50.940Z,15.8
2023-04-18T11:43:51.069Z,15.9
2023-04-18T11:44:51.005Z,15.9
2023-04-18T11:45:51.030Z,15.9
2023-04-18T11:46:51.285Z,16.0
2023-04-18T11:47:51.005Z,16.0
2023-04-18T11:48:51.010Z,16.0
2023-04-18T11:49:51.050Z,16.1
2023-04-18T11:50:50.965Z,16.2
2023-04-18T11:51:50.989Z,16.3
2023-04-18T11:52:50.981Z,16.3
2023-04-18T11:54:52.149Z,16.4
2023-04-18T11:55:51.089Z,16.5
2023-04-18T11:56:50.998Z,16.5
2023-04-18T11:57:51.079Z,16.6
2023-04-18T11:58:50.979Z,16.6
2023-04-18T11:59:50.952Z,16.7
2023-04-18T12:00:50.964Z,16.7
2023-04-18T12:01:53.089Z,16.8
2023-04-18T12:02:51.251Z,16.8
2023-04-18T12:03:51.868Z,16.8
2023-04-18T12:04:52.559Z,16.8
2023-04-18T12:05:51.243Z,16.8
2023-04-18T12:06:50.982Z,16.8
2023-04-18T12:07:50.920Z,16.7
2023-04-18T12:09:51.104Z,16.7
2023-04-18T12:10:51.105Z,16.7
2023-04-18T12:11:50.966Z,16.7
2023-04-18T12:12:51.128Z,16.7
2023-04-18T12:13:50.926Z,16.7
2023-04-18T12:14:50.913Z,16.7
2023-04-18T12:15:52.202Z,16.7
2023-04-18T12:16:50.975Z,16.7
2023-04-18T12:17:51.056Z,16.6
2023-04-18T12:18:50.953Z,16.6
2023-04-18T12:19:51.112Z,16.5
2023-04-18T12:20:50.956Z,16.4
2023-04-18T12:21:51.173Z,16.4
2023-04-18T12:22:51.820Z,16.3
2023-04-18T12:23:50.974Z,16.2
2023-04-18T12:24:50.918Z,16.1
2023-04-18T12:25:50.942Z,16.1
2023-04-18T12:26:50.940Z,16.1
2023-04-18T12:27:50.934Z,16.1
2023-04-18T12:28:50.974Z,16.1
2023-04-18T12:29:50.938Z,16.1
2023-04-18T12:30:51.073Z,16.1
2023-04-18T12:31:51.137Z,16.1
2023-04-18T12:32:51.092Z,16.1
2023-04-18T12:33:50.914Z,16.1
2023-04-18T12:34:51.052Z,16.0
2023-04-18T12:35:50.909Z,16.0
2023-04-18T12:36:51.015Z,16.0
2023-04-18T12:37:50.969Z,16.0
2023-04-18T12:38:51.035Z,15.9
2023-04-18T12:39:52.645Z,15.9
2023-04-18T12:40:51.027Z,15.9
2023-04-18T12:41:51.098Z,15.8
2023-04-18T12:42:50.899Z,15.8
2023-04-18T12:43:50.962Z,15.8
2023-04-18T12:44:50.906Z,15.8
2023-04-18T12:45:50.991Z,15.8
2023-04-18T12:46:53.932Z,15.8
2023-04-18T12:47:50.890Z,15.8
2023-04-18T12:48:50.900Z,15.8
2023-04-18T12:49:50.885Z,15.8
2023-04-18T12:50:51.144Z,15.7
2023-04-18T12:51:55.388Z,15.7
2023-04-18T12:52:51.017Z,15.7
2023-04-18T12:53:50.973Z,15.7
2023-04-18T12:54:50.867Z,15.7
2023-04-18T12:55:50.867Z,15.6
2023-04-18T12:57:13.737Z,15.6
2023-04-18T12:57:50.906Z,15.6
2023-04-18T12:58:51.028Z,15.6
2023-04-18T12:59:50.854Z,15.6
2023-04-18T13:00:50.860Z,15.6
2023-04-18T13:01:50.910Z,15.6
2023-04-18T13:02:51.065Z,15.6
2023-04-18T13:04:04.037Z,15.6
2023-04-18T13:04:50.860Z,15.6
2023-04-18T13:05:50.842Z,15.6
2023-04-18T13:06:50.838Z,15.6
2023-04-18T13:07:50.908Z,15.6
2023-04-18T13:08:51.933Z,15.6
2023-04-18T13:09:50.863Z,15.6
2023-04-18T13:10:50.928Z,15.7
2023-04-18T13:11:50.861Z,15.7
2023-04-18T13:12:50.895Z,15.7
2023-04-18T13:13:51.136Z,15.7
2023-04-18T13:14:50.888Z,15.8
2023-04-18T13:15:50.954Z,15.8
2023-04-18T13:16:50.890Z,15.8
2023-04-18T13:17:52.456Z,15.8
2023-04-18T13:18:52.292Z,15.8
2023-04-18T13:19:50.952Z,15.8
2023-04-18T13:21:01.712Z,15.8
2023-04-18T13:21:52.283Z,15.8
2023-04-18T13:22:50.859Z,15.7
2023-04-18T13:23:50.864Z,15.7
2023-04-18T13:24:51.009Z,15.7
2023-04-18T13:25:50.832Z,15.7
2023-04-18T13:26:51.018Z,15.7
2023-04-18T13:27:51.006Z,15.7
2023-04-18T13:28:50.802Z,15.7
2023-04-18T13:29:50.868Z,15.7
2023-04-18T13:30:50.832Z,15.7
2023-04-18T13:31:50.911Z,15.8
2023-04-18T13:32:50.886Z,15.8
2023-04-18T13:33:51.143Z,15.8
2023-04-18T13:34:55.130Z,15.8
2023-04-18T13:35:51.951Z,15.8
2023-04-18T13:36:50.846Z,15.7
2023-04-18T13:37:50.891Z,15.7
2023-04-18T13:38:50.821Z,15.7
2023-04-18T13:39:50.809Z,15.7